Kinkaid, Illinois
Current Conditions -  °F | °C
As of 11:52 AM on Monday 24 Nov 2014 (Local Time) from KMDH Reporting Station
Scattered Clouds Scattered Clouds  
Wind Chill: 41°   Ceiling: Unl
Heat Index: 46°   Visibility: 10mi
Dew Point: 33°   Wind: 10mph
Humidity: 61%   Direction: 260°W
Pressure: 29.72"   Gusts: 20mph
Location:  37.8835°N, 89.4465°W
Report Text: KMDH 241752Z 26009G17KT 10SM FEW035 SCT046 08/01 A2972 RMK AO2 SLP065 T00780006 10078 20050 50025
Loading
Personal Weather Stations






























Interactive Weather Map New forecast layout! Learn more

10-Day Weather Forecast

Advertisements
Track Severe Weather on mobile